Aviation Digital Data Service (ADDS)

Output produced by METARs form (0449 UTC 30 March 2017)
found at http://www.aviationweather.gov/adds/metars/
 
KSMO 300351Z AUTO 00000KT 10SM CLR 17/12 A3001 RMK AO2 SLP161 T01670122 $
KSMO 292333Z 3000/3024 24009KT P6SM SKC 
     FM300300 VRB03KT P6SM SKC 
     FM301800 21005KT P6SM SCT250 
     FM302100 24011KT P6SM SCT250
       
KLAX 300353Z 25004KT 10SM CLR 17/12 A3001 RMK AO2 SLP159 T01720117
KLAX 300342Z 3004/3106 25010KT P6SM FEW250 
     FM300600 VRB03KT P6SM SKC 
     FM301800 24008KT P6SM SCT250 
     FM302000 26013KT P6SM SCT250 
     FM302300 27017G24KT P6SM BKN250 
     FM310300 32011KT P6SM SCT250
       
KVNY 300351Z 27003KT 10SM CLR 22/00 A3001 RMK AO2 SLP153 T02220000
KVNY 292333Z 3000/3024 17007KT P6SM SKC 
     FM300300 VRB03KT P6SM SKC 
     FM301200 01004KT P6SM SCT250 
     FM301800 35008KT P6SM SCT250 
     FM302100 03016G22KT P6SM BKN250
       
KCMA 300355Z 29005KT 10SM CLR 16/11 A2999 RMK AO2 SLP164 T01560111
KCMA 292333Z 3000/3024 28010KT P6SM SKC 
     FM300300 VRB03KT P6SM SKC 
     FM300600 06004KT P6SM SKC 
     FM301800 28006KT P6SM SKC 
     FM302000 26017G25KT P6SM SKC